Time;durP1;ratioP1;P1;durP2;ratioP2;P2;SDS_P1;SDS_P2;PMS_P1;PMS_P2;Temp;Humidity;BMP_temperature;BMP_pressure;BME280_temperature;BME280_humidity;BME280_pressure;Samples;Min_cycle;Max_cycle;Signal;HPM_P1;HPM_P2
2022/12/08 00:01:48;;;;;;;;;55.25;46.50;;;;;6.59;72.76;100866.25;5088004;27;46097;-62
2022/12/08 00:04:13;;;;;;;;;42.50;40.25;;;;;6.56;73.07;100871.63;5061856;27;45405;-63
2022/12/08 00:09:25;;;;;;;;;51.00;45.25;;;;;6.57;72.89;100855.72;5090475;27;45552;-62
2022/12/08 00:11:56;;;;;;;;;55.00;44.75;;;;;6.61;72.78;100853.81;5094564;27;45566;-63
2022/12/08 00:14:25;;;;;;;;;53.25;40.75;;;;;6.54;72.99;100837.34;5095197;27;45459;-62
2022/12/08 00:16:50;;;;;;;;;47.50;40.50;;;;;6.50;72.63;100841.00;5086915;27;45447;-62
2022/12/08 00:19:16;;;;;;;;;46.25;37.25;;;;;6.44;73.19;100828.88;5078654;27;45420;-62
2022/12/08 00:21:41;;;;;;;;;46.75;42.75;;;;;6.50;72.67;100838.34;5084158;27;45332;-64
2022/12/08 00:24:07;;;;;;;;;54.75;43.00;;;;;6.43;73.40;100826.28;5083108;27;45383;-65
2022/12/08 00:26:33;;;;;;;;;50.75;45.25;;;;;6.51;72.87;100832.19;5095832;27;45463;-62
2022/12/08 00:28:58;;;;;;;;;59.25;46.25;;;;;6.54;73.43;100833.84;5079339;27;45482;-63
2022/12/08 00:31:23;;;;;;;;;54.50;39.75;;;;;6.56;73.00;100829.34;5097064;27;45270;-63
2022/12/08 00:33:49;;;;;;;;;48.75;43.00;;;;;6.54;73.43;100832.06;5079143;27;45408;-61
2022/12/08 00:36:14;;;;;;;;;52.00;43.75;;;;;6.60;72.80;100833.59;5096978;27;45700;-61
2022/12/08 00:38:40;;;;;;;;;60.50;46.00;;;;;6.60;73.20;100829.19;5084206;27;45561;-62
2022/12/08 00:41:11;;;;;;;;;57.25;45.50;;;;;6.57;73.10;100821.38;5078466;27;45468;-61
2022/12/08 00:43:37;;;;;;;;;49.75;42.75;;;;;6.59;73.08;100823.97;5077337;27;45315;-67
2022/12/08 00:46:03;;;;;;;;;55.67;45.33;;;;;6.52;72.85;100811.91;5097055;27;45291;-59
2022/12/08 00:48:28;;;;;;;;;53.25;42.75;;;;;6.61;72.52;100822.13;5078987;27;45539;-62
2022/12/08 00:50:54;;;;;;;;;58.00;42.75;;;;;6.53;72.60;100800.41;5097232;27;45415;-62
2022/12/08 00:53:19;;;;;;;;;55.50;43.50;;;;;6.60;72.62;100809.81;5078559;27;45332;-62
2022/12/08 00:55:45;;;;;;;;;55.25;45.50;;;;;6.62;72.79;100811.50;5083385;27;45289;-61
2022/12/08 00:58:10;;;;;;;;;50.50;41.00;;;;;6.64;72.52;100799.09;5079148;27;45539;-62
2022/12/08 01:00:35;;;;;;;;;51.25;40.75;;;;;6.66;72.25;100796.41;5096531;27;46171;-60
2022/12/08 01:03:01;;;;;;;;;48.00;40.75;;;;;6.59;72.61;100793.09;5096488;27;45269;-60
2022/12/08 01:05:26;;;;;;;;;44.75;38.25;;;;;6.67;72.54;100795.50;5096408;27;45301;-58
2022/12/08 01:07:51;;;;;;;;;54.00;43.00;;;;;6.64;72.61;100790.28;5096823;27;45477;-60
2022/12/08 01:10:17;;;;;;;;;42.75;37.75;;;;;6.71;72.40;100791.81;5095498;27;45361;-60
2022/12/08 01:12:43;;;;;;;;;52.00;40.00;;;;;6.70;72.14;100783.00;5088652;27;45901;-61
2022/12/08 01:15:08;;;;;;;;;51.25;41.50;;;;;6.68;72.18;100776.06;5096652;27;45777;-60
2022/12/08 01:17:36;;;;;;;;;48.25;36.00;;;;;6.66;72.02;100777.91;5097661;27;45444;-59
2022/12/08 01:20:01;;;;;;;;;44.00;37.50;;;;;6.64;72.94;100782.34;5089109;27;46256;-60
2022/12/08 01:22:27;;;;;;;;;41.25;35.75;;;;;6.60;72.36;100765.75;5100000;27;45261;-59
2022/12/08 01:24:52;;;;;;;;;40.75;38.75;;;;;6.59;73.02;100774.63;5100623;27;45263;-59
2022/12/08 01:27:18;;;;;;;;;50.75;39.00;;;;;6.60;72.64;100768.41;5100219;27;45458;-64
2022/12/08 01:29:43;;;;;;;;;49.25;43.25;;;;;6.55;72.51;100758.94;5086771;27;45347;-60
2022/12/08 01:32:08;;;;;;;;;46.75;40.25;;;;;6.59;73.24;100771.09;5083912;27;45291;-61
2022/12/08 01:34:34;;;;;;;;;51.75;41.00;;;;;6.54;73.13;100755.44;5100427;27;45353;-61
2022/12/08 01:36:59;;;;;;;;;44.25;41.00;;;;;6.62;72.80;100763.06;5100323;27;45476;-62
2022/12/08 01:39:25;;;;;;;;;46.75;39.00;;;;;6.53;72.76;100739.63;5100256;27;45455;-60
2022/12/08 01:41:50;;;;;;;;;58.00;48.50;;;;;6.60;72.61;100749.03;5081334;27;45436;-61
2022/12/08 01:44:16;;;;;;;;;66.50;50.25;;;;;6.61;74.06;100758.69;5099821;27;45316;-59
2022/12/08 01:46:47;;;;;;;;;64.50;49.25;;;;;6.65;72.94;100769.13;5086184;27;45463;-61
2022/12/08 01:49:21;;;;;;;;;67.00;50.25;;;;;6.68;73.39;100769.00;5079260;27;46069;-59
2022/12/08 01:51:49;;;;;;;;;68.75;53.50;;;;;6.68;73.62;100771.63;5078597;27;45436;-60
2022/12/08 01:54:15;;;;;;;;;57.25;47.25;;;;;6.70;72.94;100774.22;5079275;28;45331;-59
2022/12/08 01:56:51;;;;;;;;;60.75;44.75;;;;;6.61;73.30;100770.13;5079396;27;45355;-61
2022/12/08 01:59:18;;;;;;;;;65.50;52.25;;;;;6.52;73.22;100766.97;5078798;28;45374;-63
2022/12/08 02:01:43;;;;;;;;;58.00;47.75;;;;;6.56;73.23;100765.94;5078971;28;45488;-60
2022/12/08 02:04:09;;;;;;;;;55.25;44.50;;;;;6.59;73.31;100760.53;5079886;27;45338;-62
2022/12/08 02:06:39;;;;;;;;;56.00;42.00;;;;;6.54;73.36;100758.06;5098576;27;45605;-61
2022/12/08 02:09:05;;;;;;;;;57.75;47.25;;;;;6.57;72.87;100759.75;5099218;27;46133;-60
2022/12/08 02:11:31;;;;;;;;;48.50;42.00;;;;;6.50;73.80;100749.38;5098772;27;45278;-60
2022/12/08 02:13:58;;;;;;;;;50.75;44.25;;;;;6.57;72.97;100759.75;5099169;27;45390;-62
2022/12/08 02:16:40;;;;;;;;;53.25;43.50;;;;;6.48;73.85;100758.28;5099909;27;45557;-62
2022/12/08 02:19:33;;;;;;;;;47.00;41.25;;;;;6.45;73.38;100751.34;5099683;27;46363;-61
2022/12/08 02:22:08;;;;;;;;;48.50;42.25;;;;;6.45;73.35;100753.97;5092817;27;45415;-60
2022/12/08 02:24:43;;;;;;;;;66.25;48.00;;;;;6.48;73.17;100756.50;5099416;27;45339;-60
2022/12/08 02:27:36;;;;;;;;;49.50;44.50;;;;;6.47;73.56;100756.56;5097420;27;45493;-59
2022/12/08 02:30:19;;;;;;;;;54.75;41.00;;;;;6.41;73.68;100757.66;5097507;27;45502;-60
2022/12/08 02:33:24;;;;;;;;;61.25;44.75;;;;;6.41;73.94;100749.75;5084675;27;45468;-62
2022/12/08 02:35:49;;;;;;;;;54.50;41.00;;;;;6.40;73.41;100744.50;5082988;27;45377;-63
2022/12/08 02:38:24;;;;;;;;;52.25;41.50;;;;;6.42;73.48;100743.53;5090075;27;45331;-62
2022/12/08 02:41:15;;;;;;;;;50.25;43.75;;;;;6.37;73.81;100737.53;5098746;27;45341;-63
2022/12/08 02:43:44;;;;;;;;;51.75;43.75;;;;;6.34;73.04;100745.56;5056345;27;45570;-61
2022/12/08 02:46:20;;;;;;;;;50.25;42.25;;;;;6.36;73.82;100749.03;5097799;27;45414;-62
2022/12/08 02:48:46;;;;;;;;;47.50;43.25;;;;;6.40;74.23;100739.22;5098731;27;45351;-61
2022/12/08 02:51:12;;;;;;;;;59.00;46.75;;;;;6.45;73.63;100738.13;5095749;27;46218;-62
2022/12/08 02:53:38;;;;;;;;;53.50;43.50;;;;;6.41;73.81;100738.31;5094869;27;45332;-60
2022/12/08 02:56:13;;;;;;;;;49.50;43.50;;;;;6.35;73.82;100731.44;5078705;27;45323;-60
2022/12/08 02:58:55;;;;;;;;;35.50;27.00;;;;;6.34;73.89;100731.50;5079391;27;45711;-60
2022/12/08 03:01:42;;;;;;;;;60.25;44.50;;;;;6.28;73.89;100729.97;5096879;27;46140;-59
2022/12/08 03:04:36;;;;;;;;;64.50;43.25;;;;;6.20;74.02;100718.81;5099629;27;45240;-61
2022/12/08 03:07:20;;;;;;;;;42.75;41.00;;;;;6.16;74.08;100714.56;5077870;27;45657;-61
2022/12/08 03:09:49;;;;;;;;;55.50;43.25;;;;;6.21;74.02;100713.47;5078477;27;45478;-60
2022/12/08 03:12:25;;;;;;;;;55.00;44.75;;;;;6.14;73.56;100706.69;5094736;27;45493;-62
2022/12/08 03:14:55;;;;;;;;;51.00;42.25;;;;;6.07;74.15;100714.88;5098356;27;45231;-61
2022/12/08 03:17:25;;;;;;;;;47.25;41.00;;;;;6.01;74.32;100710.69;5079950;27;45354;-63
2022/12/08 03:19:53;;;;;;;;;60.25;45.25;;;;;5.88;74.39;100698.81;5097628;27;45414;-60
2022/12/08 03:22:23;;;;;;;;;51.50;43.75;;;;;5.91;74.87;100704.88;5098197;27;45381;-62
2022/12/08 03:24:49;;;;;;;;;56.00;40.00;;;;;5.83;74.62;100704.22;5097966;27;45284;-60
2022/12/08 03:27:19;;;;;;;;;40.50;37.25;;;;;5.86;75.01;100700.66;5097242;27;45802;-61
2022/12/08 03:29:50;;;;;;;;;61.00;47.50;;;;;5.81;73.80;100692.88;5077943;27;45380;-63
2022/12/08 03:32:36;;;;;;;;;55.75;44.50;;;;;5.75;74.73;100695.72;5077676;28;45341;-61
2022/12/08 03:35:10;;;;;;;;;47.00;40.50;;;;;5.71;73.63;100691.44;5096193;27;45268;-61
2022/12/08 03:37:37;;;;;;;;;58.25;44.25;;;;;5.67;73.89;100689.84;5079573;27;45454;-61
2022/12/08 03:40:04;;;;;;;;;53.50;46.00;;;;;5.67;75.18;100689.84;5097288;27;45359;-62
2022/12/08 03:42:31;;;;;;;;;47.25;41.25;;;;;5.67;75.14;100675.78;5095640;27;45473;-61
2022/12/08 03:44:56;;;;;;;;;62.25;41.25;;;;;5.70;75.34;100679.19;5091184;27;45517;-62
2022/12/08 03:47:21;;;;;;;;;52.75;43.75;;;;;5.72;74.52;100676.47;5077431;28;45451;-61
2022/12/08 03:49:47;;;;;;;;;50.00;45.25;;;;;5.74;74.94;100680.81;5097366;27;45596;-62
2022/12/08 03:52:12;;;;;;;;;58.25;44.25;;;;;5.74;74.27;100675.53;5095522;27;47242;-60
2022/12/08 03:54:38;;;;;;;;;54.00;41.75;;;;;5.64;74.47;100655.66;5096739;27;45322;-59
2022/12/08 03:57:03;;;;;;;;;46.75;41.50;;;;;5.64;75.23;100658.28;5081156;27;46781;-60
2022/12/08 03:59:28;;;;;;;;;55.00;41.50;;;;;5.69;74.38;100669.53;5095667;27;45152;-59
2022/12/08 04:01:54;;;;;;;;;63.50;47.25;;;;;5.70;75.45;100668.63;5086689;27;45438;-63
2022/12/08 04:04:19;;;;;;;;;48.50;43.75;;;;;5.71;74.60;100665.06;5094687;27;45268;-60
2022/12/08 04:06:45;;;;;;;;;50.00;41.50;;;;;5.69;75.50;100658.13;5097143;27;45169;-64
2022/12/08 04:09:10;;;;;;;;;48.75;41.25;;;;;5.75;74.85;100664.06;5096511;27;45181;-60
2022/12/08 04:11:35;;;;;;;;;53.50;44.25;;;;;5.70;74.84;100651.94;5097390;27;45445;-63
2022/12/08 04:14:01;;;;;;;;;47.50;44.25;;;;;5.73;73.90;100663.25;5097649;27;45354;-61
2022/12/08 04:16:27;;;;;;;;;55.75;43.50;;;;;5.74;74.31;100659.69;5097431;27;45329;-60
2022/12/08 04:18:53;;;;;;;;;57.75;44.25;;;;;5.70;74.48;100655.44;5095192;27;45495;-62
2022/12/08 04:21:19;;;;;;;;;58.50;46.50;;;;;5.68;74.91;100659.03;5096513;27;45448;-61
2022/12/08 04:23:45;;;;;;;;;60.25;45.00;;;;;5.67;74.59;100658.19;5087801;27;45751;-63
2022/12/08 04:26:11;;;;;;;;;46.50;40.50;;;;;5.69;74.71;100652.84;5076939;28;45390;-60
2022/12/08 04:28:37;;;;;;;;;55.50;39.25;;;;;5.68;75.04;100649.34;5077112;28;45592;-62
2022/12/08 04:31:03;;;;;;;;;59.50;47.00;;;;;5.67;75.19;100642.34;5077677;27;45535;-60
2022/12/08 04:33:28;;;;;;;;;55.00;47.00;;;;;5.64;75.03;100631.91;5097251;27;45246;-61
2022/12/08 04:35:53;;;;;;;;;48.00;41.50;;;;;5.66;75.55;100632.72;5090411;27;45347;-60
2022/12/08 04:38:19;;;;;;;;;46.00;43.75;;;;;5.62;74.38;100633.75;5076960;28;45402;-59
2022/12/08 04:40:44;;;;;;;;;52.50;41.25;;;;;5.57;74.72;100633.03;5076292;27;45290;-61
2022/12/08 04:43:10;;;;;;;;;49.75;43.25;;;;;5.54;74.42;100627.88;5076619;28;45296;-61
2022/12/08 04:45:39;;;;;;;;;52.25;43.50;;;;;5.54;74.77;100626.09;5076802;28;45292;-60
2022/12/08 04:48:04;;;;;;;;;35.75;34.75;;;;;5.56;75.04;100629.53;5095343;27;45728;-60
2022/12/08 04:50:30;;;;;;;;;44.25;41.00;;;;;5.57;75.33;100625.09;5097036;27;46376;-61
2022/12/08 04:52:55;;;;;;;;;48.75;44.00;;;;;5.57;74.59;100625.09;5089978;27;45311;-62
2022/12/08 04:55:21;;;;;;;;;51.25;41.25;;;;;5.50;75.06;100599.88;5082107;27;45507;-61
2022/12/08 04:57:46;;;;;;;;;40.25;38.75;;;;;5.60;75.01;100617.13;5097714;27;45498;-62
2022/12/08 05:00:12;;;;;;;;;50.50;42.00;;;;;5.64;73.93;100616.06;5097261;27;46341;-60
2022/12/08 05:02:38;;;;;;;;;53.75;44.50;;;;;5.66;74.49;100610.75;5096040;27;45420;-62
2022/12/08 05:05:04;;;;;;;;;43.75;34.00;;;;;5.58;73.65;100600.44;5096345;27;45418;-61
2022/12/08 05:07:30;;;;;;;;;41.50;39.00;;;;;5.66;74.07;100606.31;5097347;27;45303;-63
2022/12/08 05:09:55;;;;;;;;;44.00;38.75;;;;;5.57;72.60;100588.19;5090168;27;46806;-62
2022/12/08 05:12:20;;;;;;;;;49.75;34.00;;;;;5.54;72.96;100596.22;5076177;27;45275;-63
2022/12/08 05:14:47;;;;;;;;;37.50;27.00;;;;;5.55;72.59;100590.00;5076373;28;45201;-63
2022/12/08 05:17:13;;;;;;;;;40.25;32.50;;;;;5.62;73.17;100607.38;5076565;28;45244;-62
2022/12/08 05:19:38;;;;;;;;;48.75;39.75;;;;;5.54;73.10;100585.66;5087427;27;45511;-60
2022/12/08 05:22:04;;;;;;;;;38.75;35.75;;;;;5.66;72.16;100616.88;5096640;27;45385;-63
2022/12/08 05:24:29;;;;;;;;;40.50;37.75;;;;;5.66;73.32;100601.06;5096763;27;45460;-61
2022/12/08 05:26:55;;;;;;;;;39.25;35.25;;;;;5.65;73.39;100609.03;5090237;27;45449;-62
2022/12/08 05:29:20;;;;;;;;;55.25;44.25;;;;;5.59;73.44;100591.63;5092768;27;45462;-64
2022/12/08 05:31:46;;;;;;;;;52.25;44.25;;;;;5.67;73.22;100597.50;5095789;27;45342;-61
2022/12/08 05:34:11;;;;;;;;;46.25;36.25;;;;;5.71;73.20;100600.88;5078405;27;45448;-62
2022/12/08 05:36:37;;;;;;;;;58.50;42.75;;;;;5.72;74.33;100602.59;5093324;27;45514;-63
2022/12/08 05:39:02;;;;;;;;;54.50;42.75;;;;;5.72;73.79;100598.19;5096294;27;45935;-62
2022/12/08 05:41:27;;;;;;;;;49.75;41.00;;;;;5.71;74.19;100601.72;5080044;27;45444;-61
2022/12/08 05:43:53;;;;;;;;;50.25;32.50;;;;;5.65;74.82;100591.41;5089007;27;45394;-62
2022/12/08 05:46:18;;;;;;;;;56.50;43.50;;;;;5.46;74.71;100564.81;5075729;28;45548;-64
2022/12/08 05:48:43;;;;;;;;;49.25;37.75;;;;;5.66;74.80;100598.41;5088966;27;45272;-62
2022/12/08 05:51:21;;;;;;;;;47.00;41.00;;;;;5.68;74.65;100596.56;5096012;27;45288;-62
2022/12/08 05:53:47;;;;;;;;;49.50;38.50;;;;;5.71;73.88;100604.38;5096238;27;45349;-62
2022/12/08 05:56:13;;;;;;;;;49.00;42.00;;;;;5.65;74.31;100594.06;5096115;27;45368;-61
2022/12/08 05:58:38;;;;;;;;;42.00;37.25;;;;;5.68;74.33;100595.72;5095929;27;45406;-60
2022/12/08 06:01:04;;;;;;;;;60.75;42.00;;;;;5.62;73.61;100595.03;5096100;27;45268;-63
2022/12/08 06:03:29;;;;;;;;;55.75;44.50;;;;;5.71;73.57;100606.16;5079589;27;45500;-61
2022/12/08 06:05:55;;;;;;;;;53.25;41.25;;;;;5.73;73.32;100605.22;5098880;27;45339;-61
2022/12/08 06:08:20;;;;;;;;;60.00;44.25;;;;;5.69;74.25;100600.94;5095736;27;45490;-61
2022/12/08 06:10:46;;;;;;;;;40.75;34.50;;;;;5.70;74.21;100597.38;5099283;27;45445;-60
2022/12/08 06:13:12;;;;;;;;;47.25;35.50;;;;;5.73;74.00;100594.66;5097999;27;45350;-61
2022/12/08 06:15:38;;;;;;;;;29.25;27.50;;;;;5.72;73.45;100592.91;5099966;27;45431;-59
2022/12/08 06:18:05;;;;;;;;;40.25;36.00;;;;;5.72;73.24;100586.75;5091661;27;45222;-66
2022/12/08 06:20:30;;;;;;;;;43.00;35.25;;;;;5.70;73.83;100588.59;5080148;27;45390;-62
2022/12/08 06:22:56;;;;;;;;;49.00;41.75;;;;;5.69;73.54;100585.09;5079364;27;45334;-64
2022/12/08 06:25:22;;;;;;;;;44.50;41.25;;;;;5.63;73.35;100577.44;5099302;27;45299;-64
2022/12/08 06:27:48;;;;;;;;;37.25;33.50;;;;;5.60;73.28;100577.53;5091883;27;45393;-63
2022/12/08 06:30:14;;;;;;;;;42.25;33.50;;;;;5.64;74.06;100587.06;5067147;27;45420;-62
2022/12/08 06:32:39;;;;;;;;;44.75;36.75;;;;;5.59;73.15;100586.34;5094790;27;45477;-62
2022/12/08 06:35:05;;;;;;;;;40.25;36.50;;;;;5.62;73.32;100588.91;5096339;27;45451;-62
2022/12/08 06:37:31;;;;;;;;;55.50;36.25;;;;;5.62;73.56;100580.97;5079545;27;45513;-59
2022/12/08 06:39:56;;;;;;;;;47.25;34.25;;;;;5.56;73.64;100595.22;5095795;27;45545;-63
2022/12/08 06:45:06;;;;;;;;;50.50;42.25;;;;;5.51;73.75;100575.22;5098855;27;45334;-62
2022/12/08 06:47:31;;;;;;;;;29.50;25.75;;;;;5.45;72.42;100562.22;5099038;27;46154;-62
2022/12/08 06:49:57;;;;;;;;;37.25;28.00;;;;;5.47;72.99;100576.22;5099523;27;45546;-61
2022/12/08 06:52:22;;;;;;;;;24.25;22.00;;;;;5.46;72.05;100579.78;5088701;27;45288;-63
2022/12/08 06:54:48;;;;;;;;;26.25;26.25;;;;;5.46;71.96;100579.78;5080609;27;45529;-66
2022/12/08 06:57:13;;;;;;;;;31.50;25.25;;;;;5.47;72.68;100576.22;5096579;27;45385;-68
2022/12/08 06:59:39;;;;;;;;;25.00;24.50;;;;;5.42;72.49;100571.13;5070253;27;45365;-65
2022/12/08 07:02:04;;;;;;;;;34.00;25.50;;;;;5.41;72.25;100573.81;5094425;27;45434;-66
2022/12/08 07:04:30;;;;;;;;;32.75;27.50;;;;;5.35;72.32;100567.00;5083321;27;45718;-66
2022/12/08 07:06:55;;;;;;;;;29.25;26.25;;;;;5.32;73.03;100575.84;5096577;27;46491;-63
2022/12/08 07:09:21;;;;;;;;;28.75;24.25;;;;;5.26;72.67;100567.31;5097839;27;45315;-64
2022/12/08 07:11:46;;;;;;;;;28.00;28.00;;;;;5.30;73.02;100563.63;5097363;27;45148;-66
2022/12/08 07:14:12;;;;;;;;;31.00;28.00;;;;;5.28;72.49;100568.09;5068951;27;45459;-65
2022/12/08 07:16:38;;;;;;;;;28.25;21.00;;;;;5.22;72.72;100560.44;5077529;27;47043;-68
2022/12/08 07:19:05;;;;;;;;;36.00;29.25;;;;;5.30;72.73;100564.50;5090659;27;45497;-64
2022/12/08 07:21:30;;;;;;;;;33.25;28.75;;;;;5.25;73.76;100565.59;5099280;27;45549;-60
2022/12/08 07:23:56;;;;;;;;;35.00;32.25;;;;;5.28;73.41;100561.06;5096978;27;46221;-68
2022/12/08 07:26:21;;;;;;;;;37.50;31.50;;;;;5.31;73.69;100565.34;5085374;27;46785;-61
2022/12/08 07:28:47;;;;;;;;;32.75;30.50;;;;;5.29;73.03;100557.50;5098072;27;45487;-61
2022/12/08 07:31:18;;;;;;;;;30.75;29.00;;;;;5.36;73.40;100562.59;5081096;27;45543;-62
2022/12/08 07:33:44;;;;;;;;;38.75;31.25;;;;;5.42;73.35;100565.00;5098851;27;45568;-62
2022/12/08 07:36:10;;;;;;;;;37.25;30.00;;;;;5.43;73.22;100574.63;5098318;27;46419;-62
2022/12/08 07:38:35;;;;;;;;;36.50;31.25;;;;;5.41;72.40;100566.75;5098335;27;45318;-62
2022/12/08 07:41:01;;;;;;;;;38.25;33.50;;;;;5.50;72.62;100576.13;5098226;27;45330;-62
2022/12/08 07:43:26;;;;;;;;;41.25;35.25;;;;;5.55;72.56;100579.47;5094895;27;45546;-62
2022/12/08 07:45:52;;;;;;;;;31.75;26.75;;;;;5.56;73.02;100575.91;5097441;27;45401;-62
2022/12/08 07:48:18;;;;;;;;;38.25;34.25;;;;;5.56;72.81;100578.53;5092599;27;45414;-62
2022/12/08 07:50:47;;;;;;;;;37.75;31.00;;;;;5.55;72.91;100569.78;5078114;28;45265;-61
2022/12/08 07:53:13;;;;;;;;;40.50;31.50;;;;;5.59;72.27;100575.78;5080184;27;45192;-62
2022/12/08 07:55:39;;;;;;;;;42.75;35.50;;;;;5.55;72.62;100571.53;5095539;27;45926;-63
2022/12/08 07:58:05;;;;;;;;;37.00;34.75;;;;;5.54;72.60;100569.81;5088489;27;45333;-58
2022/12/08 08:00:31;;;;;;;;;39.00;35.75;;;;;5.55;72.77;100569.78;5090447;27;46200;-59
2022/12/08 08:02:56;;;;;;;;;41.75;36.75;;;;;5.59;72.30;100563.47;5079876;27;45463;-58
2022/12/08 08:05:22;;;;;;;;;45.50;35.50;;;;;5.63;72.51;100558.97;5061065;27;47600;-59
2022/12/08 08:07:47;;;;;;;;;37.25;33.75;;;;;5.57;72.50;100562.66;5072737;27;45760;-60
2022/12/08 08:10:13;;;;;;;;;40.25;34.00;;;;;5.55;72.38;100555.72;5089332;27;45496;-61
2022/12/08 08:12:38;;;;;;;;;36.25;36.25;;;;;5.45;72.75;100547.28;5090634;27;45467;-62
2022/12/08 08:15:06;;;;;;;;;40.50;30.75;;;;;5.47;73.07;100547.22;5093957;27;45579;-61
2022/12/08 08:17:32;;;;;;;;;44.25;33.00;;;;;5.53;72.76;100550.50;5099596;27;46636;-62
2022/12/08 08:19:58;;;;;;;;;41.50;32.00;;;;;5.63;71.46;100561.59;5073779;27;45410;-62
2022/12/08 08:22:24;;;;;;;;;42.25;37.75;;;;;5.58;72.79;100552.97;5095170;27;45721;-61
2022/12/08 08:24:50;;;;;;;;;21.50;19.75;;;;;5.63;72.35;100546.63;5091336;27;45448;-61
2022/12/08 08:27:15;;;;;;;;;41.50;36.00;;;;;5.62;71.58;100550.19;5106189;27;45512;-62
2022/12/08 08:29:41;;;;;;;;;42.00;31.25;;;;;5.62;72.63;100550.19;5089050;27;46896;-62
2022/12/08 08:32:06;;;;;;;;;50.25;41.00;;;;;5.59;72.00;100549.41;5083390;27;45419;-60
2022/12/08 08:34:32;;;;;;;;;52.00;41.75;;;;;5.54;72.51;100554.00;5084268;27;46425;-61
2022/12/08 08:36:57;;;;;;;;;48.75;40.25;;;;;5.46;72.29;100543.72;5061761;27;45340;-60
2022/12/08 08:39:23;;;;;;;;;48.75;38.75;;;;;5.47;71.34;100539.28;5093986;27;45378;-60
2022/12/08 08:41:48;;;;;;;;;40.25;36.00;;;;;5.53;72.31;100542.59;5095587;27;45592;-63
2022/12/08 08:44:13;;;;;;;;;39.00;35.00;;;;;5.56;72.28;100538.97;5097096;27;45385;-59
2022/12/08 08:46:40;;;;;;;;;36.25;30.25;;;;;5.40;71.47;100503.53;5075752;27;45527;-63
2022/12/08 08:49:05;;;;;;;;;45.50;33.25;;;;;5.59;71.60;100538.84;5058671;28;45472;-60
2022/12/08 08:51:30;;;;;;;;;36.50;32.25;;;;;5.57;71.54;100535.41;5086093;27;45362;-61
2022/12/08 08:53:56;;;;;;;;;41.75;36.50;;;;;5.49;71.45;100529.56;5096987;27;45355;-61
2022/12/08 08:56:21;;;;;;;;;36.00;30.25;;;;;5.45;72.20;100527.94;5077266;27;45432;-60
2022/12/08 08:58:49;;;;;;;;;48.00;38.50;;;;;5.47;71.92;100539.28;5096762;27;45489;-62
2022/12/08 09:01:17;;;;;;;;;46.50;37.50;;;;;5.45;71.58;100530.59;5096995;27;45706;-63
2022/12/08 09:03:44;;;;;;;;;41.50;31.50;;;;;5.51;70.84;100525.09;5097373;27;45938;-61
2022/12/08 09:06:10;;;;;;;;;49.00;38.25;;;;;5.48;70.53;100528.72;5096969;27;45449;-60
2022/12/08 09:08:35;;;;;;;;;42.75;35.75;;;;;5.50;71.53;100526.88;5079096;27;45341;-60
2022/12/08 09:11:04;;;;;;;;;40.75;34.25;;;;;5.55;71.68;100537.25;5099020;27;45718;-60
2022/12/08 09:13:29;;;;;;;;;44.75;32.00;;;;;5.55;70.54;100537.25;5081160;27;46873;-62
2022/12/08 09:15:54;;;;;;;;;45.75;39.50;;;;;5.51;71.42;100522.47;5098987;27;45864;-60
2022/12/08 09:18:20;;;;;;;;;39.00;26.00;;;;;5.42;71.09;100515.72;5079265;27;45464;-60
2022/12/08 09:20:45;;;;;;;;;40.75;32.50;;;;;5.51;71.02;100536.50;5079129;27;45647;-59
2022/12/08 09:23:11;;;;;;;;;55.00;39.50;;;;;5.42;71.47;100534.19;5096792;27;45507;-58
2022/12/08 09:25:36;;;;;;;;;37.00;34.25;;;;;5.50;71.69;100528.66;5078271;27;45453;-60
2022/12/08 09:28:02;;;;;;;;;43.50;34.50;;;;;5.43;70.59;100535.06;5096870;27;45460;-64
2022/12/08 09:30:27;;;;;;;;;48.25;32.00;;;;;5.48;71.41;100530.50;5097366;27;45323;-63
2022/12/08 09:32:53;;;;;;;;;41.25;34.50;;;;;5.52;70.84;100521.53;5078657;27;46370;-61
2022/12/08 09:35:18;;;;;;;;;39.25;29.75;;;;;5.47;70.43;100520.84;5078541;27;45354;-59
2022/12/08 09:37:44;;;;;;;;;43.75;35.00;;;;;5.48;71.07;100535.78;5097655;27;45289;-61
2022/12/08 09:40:16;;;;;;;;;25.50;25.50;;;;;5.55;71.06;100527.56;5100929;27;45413;-60
2022/12/08 09:43:02;;;;;;;;;40.25;29.75;;;;;5.49;70.46;100509.34;5100268;27;45338;-61
2022/12/08 09:45:36;;;;;;;;;32.00;29.25;;;;;5.53;70.06;100528.53;5100185;27;45513;-59
2022/12/08 09:48:01;;;;;;;;;34.00;31.50;;;;;5.44;70.46;100519.16;5100601;27;45307;-60
2022/12/08 09:50:42;;;;;;;;;39.75;30.50;;;;;5.46;69.63;100524.38;5100928;27;45405;-59
2022/12/08 09:53:20;;;;;;;;;35.75;31.50;;;;;5.45;70.82;100520.03;5100426;27;46598;-62
2022/12/08 09:55:51;;;;;;;;;34.50;32.25;;;;;5.48;70.59;100510.25;5099908;27;45454;-62
2022/12/08 09:58:40;;;;;;;;;28.50;24.00;;;;;5.45;70.85;100512.13;5100599;27;45229;-59
2022/12/08 10:01:09;;;;;;;;;38.00;35.50;;;;;5.44;70.29;100513.03;5100301;27;45440;-60
2022/12/08 10:03:35;;;;;;;;;42.50;33.50;;;;;5.39;70.40;100492.13;5081150;27;45398;-62
2022/12/08 10:06:07;;;;;;;;;34.25;33.75;;;;;5.45;70.06;100498.94;5099215;27;45283;-60
2022/12/08 10:08:46;;;;;;;;;34.50;31.25;;;;;5.46;70.92;100500.66;5099819;27;45284;-60
2022/12/08 10:11:21;;;;;;;;;36.75;28.75;;;;;5.51;70.38;100498.72;5097621;27;45386;-59
2022/12/08 10:14:12;;;;;;;;;41.75;34.50;;;;;5.56;70.18;100500.25;5082999;27;47204;-60
2022/12/08 10:16:47;;;;;;;;;32.50;30.75;;;;;5.69;69.68;100499.81;5098310;27;45539;-59
2022/12/08 10:19:18;;;;;;;;;41.00;33.75;;;;;5.73;69.33;100493.50;5099647;27;45424;-61
2022/12/08 10:21:44;;;;;;;;;18.50;16.00;;;;;5.72;69.25;100487.34;5079637;27;45430;-61
2022/12/08 10:24:37;;;;;;;;;47.25;38.25;;;;;5.79;69.62;100486.22;5097780;27;46072;-65
2022/12/08 10:27:10;;;;;;;;;35.50;31.75;;;;;5.69;68.78;100465.50;5080028;27;46277;-64
2022/12/08 10:29:35;;;;;;;;;37.00;33.25;;;;;5.79;68.96;100480.94;5098126;27;45481;-64
2022/12/08 10:32:12;;;;;;;;;31.75;27.00;;;;;5.81;69.49;100471.19;5099601;27;45200;-68
2022/12/08 10:35:05;;;;;;;;;46.50;34.00;;;;;5.81;68.38;100468.53;5097890;27;45461;-64
2022/12/08 10:37:30;;;;;;;;;40.50;33.75;;;;;5.85;68.50;100466.63;5078793;27;45456;-64
2022/12/08 10:40:09;;;;;;;;;42.00;30.00;;;;;5.83;68.05;100465.84;5082582;27;45537;-60
2022/12/08 10:42:39;;;;;;;;;40.75;34.00;;;;;5.83;67.94;100457.91;5060235;27;45483;-61
2022/12/08 10:45:07;;;;;;;;;32.00;29.75;;;;;5.89;68.39;100453.28;5071143;27;46983;-64
2022/12/08 10:47:41;;;;;;;;;36.75;35.25;;;;;5.91;68.43;100451.47;5077944;27;45624;-61
2022/12/08 10:50:19;;;;;;;;;37.50;33.50;;;;;5.85;67.72;100451.66;5096252;27;45540;-59
2022/12/08 10:52:54;;;;;;;;;37.75;30.50;;;;;5.82;68.22;100462.34;5098942;27;45409;-60
2022/12/08 10:55:20;;;;;;;;;38.25;31.50;;;;;5.88;68.12;100456.00;5097778;27;45599;-62
2022/12/08 10:57:49;;;;;;;;;44.50;32.50;;;;;5.80;67.98;100443.06;5095614;27;45504;-61
2022/12/08 11:00:20;;;;;;;;;34.75;34.75;;;;;5.82;68.38;100435.94;5078634;27;45405;-64
2022/12/08 11:03:02;;;;;;;;;31.75;26.75;;;;;5.81;68.75;100428.97;5081189;27;45553;-63
2022/12/08 11:05:31;;;;;;;;;36.25;32.00;;;;;5.88;67.61;100446.28;5089273;27;45295;-60
2022/12/08 11:07:57;;;;;;;;;35.75;32.75;;;;;5.82;68.97;100430.66;5099293;27;45435;-60
2022/12/08 11:10:41;;;;;;;;;34.50;30.75;;;;;5.91;68.72;100440.91;5083934;27;45421;-62
2022/12/08 11:13:18;;;;;;;;;34.25;32.25;;;;;5.89;67.76;100421.59;5099923;27;45487;-62
2022/12/08 11:15:48;;;;;;;;;39.25;35.25;;;;;5.86;68.04;100411.19;5081692;27;46037;-61
2022/12/08 11:18:26;;;;;;;;;39.25;32.25;;;;;5.88;68.03;100419.91;5092951;27;45468;-65
2022/12/08 11:21:09;;;;;;;;;34.00;32.25;;;;;5.86;68.82;100413.81;5079334;28;45414;-61
2022/12/08 11:23:39;;;;;;;;;37.00;28.25;;;;;5.83;67.89;100407.78;5048547;28;45497;-63
2022/12/08 11:26:17;;;;;;;;;38.50;35.75;;;;;5.85;68.55;100404.16;5058688;28;47833;-63
2022/12/08 11:28:43;;;;;;;;;41.25;33.25;;;;;5.89;69.16;100400.50;5087989;27;45499;-61